Time;durP1;ratioP1;P1;durP2;ratioP2;P2;SDS_P1;SDS_P2;PMS_P1;PMS_P2;Temp;Humidity;BMP_temperature;BMP_pressure;BME280_temperature;BME280_humidity;BME280_pressure;Samples;Min_cycle;Max_cycle;Signal;HPM_P1;HPM_P2
2023/05/02 00:00:02;;;;;;;9.10;5.90;;;;;;;7.60;100.00;98469.53;4184720;28;20048;-72
2023/05/02 00:02:03;;;;;;;11.07;6.95;;;;;;;7.56;100.00;98468.66;4183856;28;20040;-72
2023/05/02 00:04:03;;;;;;;8.98;6.53;;;;;;;7.60;100.00;98469.53;4184413;28;20469;-72
2023/05/02 00:06:03;;;;;;;7.65;5.82;;;;;;;7.64;100.00;98466.88;4184247;28;20107;-72
2023/05/02 00:08:04;;;;;;;8.75;6.60;;;;;;;7.58;100.00;98472.66;4184904;28;20049;-72
2023/05/02 00:10:05;;;;;;;8.23;5.60;;;;;;;7.59;100.00;98477.00;4186432;28;20453;-72
2023/05/02 00:12:05;;;;;;;8.40;6.22;;;;;;;7.66;100.00;98470.88;4183765;28;20361;-72
2023/05/02 00:14:05;;;;;;;9.65;6.43;;;;;;;7.69;100.00;98470.13;4185136;28;20020;-72
2023/05/02 00:16:06;;;;;;;8.23;6.15;;;;;;;7.68;100.00;98462.25;4186519;28;20483;-72
2023/05/02 00:18:06;;;;;;;7.68;6.30;;;;;;;7.71;100.00;98473.34;4178257;28;20120;-72
2023/05/02 00:20:10;;;;;;;8.70;6.72;;;;;;;7.73;100.00;98473.00;4184534;28;20067;-72
2023/05/02 00:22:11;;;;;;;8.10;6.65;;;;;;;7.72;100.00;98477.69;4184636;28;20033;-72
2023/05/02 00:24:11;;;;;;;7.90;5.93;;;;;;;7.77;100.00;98473.84;4183294;28;20476;-72
2023/05/02 00:26:11;;;;;;;8.27;6.70;;;;;;;7.75;100.00;98470.66;4181536;28;20052;-72
2023/05/02 00:28:12;;;;;;;9.27;6.43;;;;;;;7.79;100.00;98474.31;4188382;28;20111;-72
2023/05/02 00:30:13;;;;;;;9.13;6.65;;;;;;;7.77;100.00;98469.13;4182516;28;20040;-72
2023/05/02 00:32:13;;;;;;;6.78;5.90;;;;;;;7.81;100.00;98464.53;4180226;28;20496;-72
2023/05/02 00:34:14;;;;;;;8.10;6.40;;;;;;;7.85;100.00;98468.13;4185358;28;20033;-72
2023/05/02 00:36:18;;;;;;;7.90;5.85;;;;;;;7.86;100.00;98471.69;4181125;28;20910;-72
2023/05/02 00:38:18;;;;;;;7.53;6.47;;;;;;;7.91;100.00;98468.66;4186776;28;20082;-72
2023/05/02 00:40:19;;;;;;;8.63;6.32;;;;;;;7.87;100.00;98465.84;4180144;28;20407;-72
2023/05/02 00:42:19;;;;;;;8.90;6.70;;;;;;;7.91;100.00;98465.13;4185387;28;20032;-72
2023/05/02 00:44:21;;;;;;;8.43;6.32;;;;;;;7.98;100.00;98462.50;4181981;28;20035;-72
2023/05/02 00:46:21;;;;;;;8.65;5.78;;;;;;;7.99;100.00;98462.16;4181168;28;20132;-72
2023/05/02 00:48:22;;;;;;;10.32;6.00;;;;;;;8.06;100.00;98462.31;4186312;28;20405;-72
2023/05/02 00:50:26;;;;;;;7.57;5.72;;;;;;;8.08;100.00;98467.44;4181453;28;20366;-72
2023/05/02 00:52:27;;;;;;;7.05;5.88;;;;;;;8.12;100.00;98469.13;4180731;28;20459;-72
2023/05/02 00:54:29;;;;;;;8.60;6.40;;;;;;;8.16;100.00;98461.72;4180336;28;20454;-72
2023/05/02 00:56:30;;;;;;;8.35;6.18;;;;;;;8.13;100.00;98469.94;4183536;28;20036;-72
2023/05/02 00:58:30;;;;;;;8.93;6.93;;;;;;;8.11;100.00;98466.75;4181734;28;20033;-72
2023/05/02 01:00:45;;;;;;;8.05;6.07;;;;;;;8.08;100.00;98462.72;4184911;28;20120;-72
2023/05/02 01:03:04;;;;;;;8.15;6.63;;;;;;;8.10;100.00;98465.13;4185065;28;20331;-72
2023/05/02 01:05:16;;;;;;;11.25;6.82;;;;;;;8.09;100.00;98469.84;4184778;28;20048;-72
2023/05/02 01:07:50;;;;;;;9.25;7.07;;;;;;;8.13;100.00;98473.47;4181936;28;20362;-72
2023/05/02 01:10:18;;;;;;;9.35;6.45;;;;;;;8.13;100.00;98473.47;4182635;28;20417;-72
2023/05/02 01:12:57;;;;;;;7.57;5.65;;;;;;;8.22;100.00;98464.19;4182110;28;20037;-72
2023/05/02 01:15:04;;;;;;;8.68;6.45;;;;;;;8.22;100.00;98472.47;4178731;28;20385;-72
2023/05/02 01:17:08;;;;;;;9.18;6.57;;;;;;;8.17;100.00;98468.81;4189518;28;20373;-72
2023/05/02 01:19:18;;;;;;;7.72;6.15;;;;;;;8.15;100.00;98484.13;4183514;28;20393;-72
2023/05/02 01:21:20;;;;;;;8.07;6.20;;;;;;;8.15;100.00;98479.41;4178318;28;20037;-71
2023/05/02 01:23:48;;;;;;;8.32;6.13;;;;;;;8.18;100.00;98486.16;4182629;28;20045;-72
2023/05/02 01:26:10;;;;;;;7.15;5.90;;;;;;;8.18;100.00;98484.19;4180809;28;20055;-72
2023/05/02 01:28:43;;;;;;;9.53;6.13;;;;;;;8.17;100.00;98490.88;4177921;28;20033;-72
2023/05/02 01:30:45;;;;;;;8.68;6.03;;;;;;;8.17;100.00;98490.06;4179702;28;20600;-72
2023/05/02 01:32:48;;;;;;;8.90;6.32;;;;;;;8.17;100.00;98495.59;4182510;28;20105;-72
2023/05/02 01:34:51;;;;;;;12.75;7.10;;;;;;;8.16;100.00;98492.03;4180119;28;20097;-72
2023/05/02 01:36:54;;;;;;;8.60;7.25;;;;;;;8.21;100.00;98502.00;4179258;28;20047;-72
2023/05/02 01:38:56;;;;;;;9.90;6.80;;;;;;;8.14;100.00;98499.88;4178774;28;20072;-72
2023/05/02 01:41:02;;;;;;;9.48;6.15;;;;;;;8.14;100.00;98510.91;4179746;28;20519;-72
2023/05/02 01:43:06;;;;;;;8.18;6.32;;;;;;;8.12;100.00;98517.94;4180802;28;20044;-72
2023/05/02 01:45:09;;;;;;;9.35;6.50;;;;;;;8.10;100.00;98514.72;4183156;28;20045;-72
2023/05/02 01:47:11;;;;;;;10.50;6.40;;;;;;;8.12;100.00;98515.97;4181717;28;20045;-72
2023/05/02 01:49:11;;;;;;;7.93;6.72;;;;;;;8.17;100.00;98510.16;4179915;28;20094;-72
2023/05/02 01:51:14;;;;;;;7.78;6.50;;;;;;;8.15;100.00;98519.97;4184075;28;21344;-72
2023/05/02 01:53:16;;;;;;;9.73;6.50;;;;;;;8.18;100.00;98516.47;4184258;28;20032;-72
2023/05/02 01:55:16;;;;;;;11.48;6.43;;;;;;;8.19;100.00;98515.31;4180175;28;20420;-72
2023/05/02 01:57:17;;;;;;;9.13;6.32;;;;;;;8.15;100.00;98503.44;4183059;28;20141;-72
2023/05/02 01:59:19;;;;;;;8.50;6.70;;;;;;;8.15;100.00;98514.44;4179938;28;20258;-72
2023/05/02 02:01:23;;;;;;;8.82;6.80;;;;;;;8.23;100.00;98516.19;4180766;28;20040;-71
2023/05/02 02:03:26;;;;;;;8.98;6.63;;;;;;;8.24;100.00;98525.25;4183109;28;20119;-71
2023/05/02 02:05:27;;;;;;;10.27;6.63;;;;;;;8.25;100.00;98524.09;4182266;28;20044;-72
2023/05/02 02:07:28;;;;;;;7.43;5.78;;;;;;;8.32;100.00;98522.28;4178150;28;20128;-72
2023/05/02 02:09:30;;;;;;;8.45;6.90;;;;;;;8.36;100.00;98525.19;4184186;28;20048;-72
2023/05/02 02:11:45;;;;;;;8.55;6.13;;;;;;;8.37;100.00;98524.81;4181747;28;20420;-72
2023/05/02 02:13:49;;;;;;;8.27;6.55;;;;;;;8.41;100.00;98530.38;4182019;28;20710;-72
2023/05/02 02:15:52;;;;;;;8.85;6.35;;;;;;;8.44;100.00;98530.47;4181011;28;20111;-72
2023/05/02 02:17:59;;;;;;;8.93;6.10;;;;;;;8.49;100.00;98529.38;4182437;28;20326;-72
2023/05/02 02:20:04;;;;;;;6.72;6.00;;;;;;;8.52;100.00;98530.59;4182188;28;20192;-72
2023/05/02 02:22:06;;;;;;;7.78;5.93;;;;;;;8.48;100.00;98530.53;4183272;28;20465;-72
2023/05/02 02:24:07;;;;;;;7.50;5.95;;;;;;;8.49;100.00;98532.13;4177982;28;20358;-72
2023/05/02 02:26:08;;;;;;;7.75;5.85;;;;;;;8.52;100.00;98539.66;4182797;28;20027;-72
2023/05/02 02:28:09;;;;;;;9.50;6.50;;;;;;;8.56;100.00;98532.28;4186533;28;20418;-72
2023/05/02 02:30:11;;;;;;;8.35;6.43;;;;;;;8.57;100.00;98539.38;4181454;28;20044;-72
2023/05/02 02:32:12;;;;;;;6.30;5.53;;;;;;;8.54;100.00;98542.88;4181918;28;20087;-72
2023/05/02 02:34:12;;;;;;;8.50;6.63;;;;;;;8.59;100.00;98548.09;4179737;28;20766;-72
2023/05/02 02:36:48;;;;;;;7.68;6.25;;;;;;;8.60;100.00;98549.69;4184058;28;20462;-72
2023/05/02 02:39:10;;;;;;;6.72;5.82;;;;;;;8.73;100.00;98547.59;4180948;28;20512;-72
2023/05/02 02:41:26;;;;;;;8.45;6.25;;;;;;;8.73;100.00;98553.09;4180574;28;20132;-72
2023/05/02 02:43:34;;;;;;;9.50;6.28;;;;;;;8.77;100.00;98567.78;4181893;28;20098;-72
2023/05/02 02:46:12;;;;;;;8.57;5.78;;;;;;;8.84;100.00;98565.13;4183350;28;20041;-72
2023/05/02 02:48:16;;;;;;;9.55;6.40;;;;;;;8.91;100.00;98568.03;4182781;28;20048;-72
2023/05/02 02:50:31;;;;;;;7.60;5.80;;;;;;;8.94;100.00;98563.78;4181513;28;20039;-73
2023/05/02 02:52:36;;;;;;;6.60;5.53;;;;;;;8.89;100.00;98561.28;4179625;28;20033;-72
2023/05/02 02:54:45;;;;;;;7.80;5.88;;;;;;;8.92;100.00;98569.63;4179218;28;20052;-72
2023/05/02 02:56:49;;;;;;;9.25;6.07;;;;;;;8.95;100.00;98570.88;4179233;28;20041;-72
2023/05/02 02:59:31;;;;;;;6.90;5.63;;;;;;;8.90;100.00;98571.97;4178569;28;20449;-73
2023/05/02 03:01:33;;;;;;;8.30;6.15;;;;;;;8.87;100.00;98575.47;4174461;28;20033;-72
2023/05/02 03:03:35;;;;;;;;;;;;;;;8.86;100.00;98576.63;4179691;28;20453;-72
2023/05/02 03:05:36;;;;;;;9.30;6.47;;;;;;;8.84;100.00;98567.09;4178322;28;19912;-73
2023/05/02 03:07:36;;;;;;;8.55;6.03;;;;;;;8.86;100.00;98584.09;4178750;28;20473;-73
2023/05/02 03:09:43;;;;;;;8.02;6.03;;;;;;;8.81;100.00;98587.94;4177847;28;20037;-72
2023/05/02 03:11:45;;;;;;;9.60;5.50;;;;;;;8.76;100.00;98571.66;4179778;28;20066;-72
2023/05/02 03:13:46;;;;;;;7.18;5.65;;;;;;;8.78;100.00;98576.84;4177960;28;20075;-72
2023/05/02 03:15:58;;;;;;;10.05;6.07;;;;;;;8.77;100.00;98586.25;4178849;28;20143;-72
2023/05/02 03:17:58;;;;;;;10.77;6.40;;;;;;;8.76;100.00;98584.66;4179329;28;20045;-72
2023/05/02 03:19:58;;;;;;;7.38;5.93;;;;;;;8.79;100.00;98586.72;4181101;28;20057;-72
2023/05/02 03:21:59;;;;;;;8.68;6.28;;;;;;;8.79;100.00;98584.75;4179916;28;20036;-72
2023/05/02 03:24:01;;;;;;;10.23;5.88;;;;;;;8.77;100.00;98587.09;4183359;28;20396;-72
2023/05/02 03:26:01;;;;;;;8.95;5.85;;;;;;;8.75;100.00;98589.38;4177047;28;20098;-72
2023/05/02 03:28:02;;;;;;;7.13;5.68;;;;;;;8.82;100.00;98597.81;4185002;28;20028;-72
2023/05/02 03:30:03;;;;;;;8.40;6.10;;;;;;;8.74;100.00;98582.28;4184332;28;20090;-73
2023/05/02 03:32:03;;;;;;;6.60;5.38;;;;;;;8.79;100.00;98597.75;4181969;28;20028;-72
2023/05/02 03:34:03;;;;;;;8.20;5.63;;;;;;;8.73;100.00;98592.50;4179079;28;20056;-72
2023/05/02 03:36:04;;;;;;;10.15;5.95;;;;;;;8.79;100.00;98590.28;4179310;28;20044;-72
2023/05/02 03:38:04;;;;;;;7.32;5.60;;;;;;;8.85;100.00;98599.03;4178329;28;20036;-72
2023/05/02 03:40:05;;;;;;;6.55;5.20;;;;;;;8.82;100.00;98599.78;4181234;28;20021;-72
2023/05/02 03:42:06;;;;;;;8.13;5.63;;;;;;;8.82;100.00;98597.00;4178720;28;20368;-72
2023/05/02 03:44:06;;;;;;;6.72;5.35;;;;;;;8.79;100.00;98609.59;4184118;28;20056;-72
2023/05/02 03:46:08;;;;;;;7.07;5.65;;;;;;;8.73;100.00;98606.31;4180521;28;20035;-72
2023/05/02 03:48:08;;;;;;;6.80;5.75;;;;;;;8.70;100.00;98609.81;4183264;28;20059;-72
2023/05/02 03:50:09;;;;;;;6.63;5.38;;;;;;;8.69;100.00;98613.72;4181133;28;20021;-72
2023/05/02 03:52:09;;;;;;;7.25;5.78;;;;;;;8.64;100.00;98613.19;4181139;28;20062;-72
2023/05/02 03:54:10;;;;;;;7.85;6.18;;;;;;;8.59;100.00;98610.72;4180960;28;20461;-72
2023/05/02 03:56:10;;;;;;;9.77;5.93;;;;;;;8.54;100.00;98606.31;4176370;28;20025;-72
2023/05/02 03:58:10;;;;;;;9.95;6.47;;;;;;;8.51;100.00;98614.47;4183089;28;20040;-72
2023/05/02 04:00:11;;;;;;;7.90;6.05;;;;;;;8.41;100.00;98616.66;4184480;28;20025;-72
2023/05/02 04:02:11;;;;;;;8.30;6.07;;;;;;;8.40;100.00;98614.25;4188887;28;20028;-72
2023/05/02 04:04:12;;;;;;;9.18;7.57;;;;;;;8.39;100.00;98618.19;4183410;28;20035;-72
2023/05/02 04:06:12;;;;;;;8.98;7.03;;;;;;;8.43;100.00;98616.28;4185680;28;20440;-72
2023/05/02 04:08:12;;;;;;;11.40;8.70;;;;;;;8.42;100.00;98622.97;4187220;28;20036;-72
2023/05/02 04:10:15;;;;;;;9.95;8.38;;;;;;;8.47;100.00;98624.66;4182897;28;20079;-72
2023/05/02 04:12:16;;;;;;;15.65;11.55;;;;;;;8.42;100.00;98629.28;4189609;28;20020;-72
2023/05/02 04:14:16;;;;;;;24.20;15.00;;;;;;;8.46;100.00;98632.13;4183635;28;20148;-72
2023/05/02 04:16:16;;;;;;;26.05;17.77;;;;;;;8.44;100.00;98634.44;4183531;28;20033;-72
2023/05/02 04:18:17;;;;;;;19.20;11.77;;;;;;;8.45;100.00;98630.53;4184373;28;20043;-72
2023/05/02 04:20:17;;;;;;;15.23;10.65;;;;;;;8.49;100.00;98636.13;4188049;28;20071;-72
2023/05/02 04:22:17;;;;;;;32.88;23.42;;;;;;;8.50;100.00;98635.75;4185024;28;20029;-72
2023/05/02 04:24:18;;;;;;;26.80;17.00;;;;;;;8.58;100.00;98645.78;4183297;28;20112;-72
2023/05/02 04:26:18;;;;;;;10.38;8.50;;;;;;;8.57;100.00;98643.38;4178133;28;20108;-72
2023/05/02 04:28:20;;;;;;;9.48;8.48;;;;;;;8.63;100.00;98652.97;4186447;28;20067;-72
2023/05/02 04:30:21;;;;;;;9.45;7.07;;;;;;;8.67;100.00;98649.13;4181055;28;23486;-72
2023/05/02 04:32:21;;;;;;;15.48;10.50;;;;;;;8.67;100.00;98659.34;4187314;28;20044;-72
2023/05/02 04:34:21;;;;;;;19.48;13.82;;;;;;;8.70;100.00;98664.97;4183445;28;20629;-72
2023/05/02 04:36:23;;;;;;;11.38;10.18;;;;;;;8.79;100.00;98678.56;4181461;28;20127;-72
2023/05/02 04:38:23;;;;;;;9.45;8.35;;;;;;;8.81;100.00;98670.72;4182808;28;20373;-72
2023/05/02 04:40:24;;;;;;;9.35;8.38;;;;;;;8.80;100.00;98677.41;4177648;28;20112;-72
2023/05/02 04:42:24;;;;;;;8.48;6.93;;;;;;;8.78;100.00;98673.41;4187242;28;20486;-72
2023/05/02 04:44:24;;;;;;;7.95;5.75;;;;;;;8.82;100.00;98683.34;4186561;28;20464;-72
2023/05/02 04:46:25;;;;;;;7.15;6.00;;;;;;;8.85;100.00;98679.06;4183523;28;20100;-72
2023/05/02 04:48:25;;;;;;;12.55;6.55;;;;;;;8.84;100.00;98688.50;4187281;28;20810;-72
2023/05/02 04:50:27;;;;;;;7.93;6.18;;;;;;;8.86;100.00;98688.94;4180607;28;20049;-72
2023/05/02 04:52:27;;;;;;;7.90;6.18;;;;;;;8.91;100.00;98688.66;4184574;28;20120;-72
2023/05/02 04:54:27;;;;;;;9.63;7.03;;;;;;;8.94;100.00;98702.53;4184671;28;20043;-72
2023/05/02 04:56:28;;;;;;;9.93;7.80;;;;;;;8.96;100.00;98700.22;4183425;28;20044;-72
2023/05/02 04:58:28;;;;;;;11.73;8.48;;;;;;;9.03;100.00;98699.56;4186118;28;20055;-72
2023/05/02 05:00:28;;;;;;;8.88;6.75;;;;;;;9.01;100.00;98708.19;4177943;28;20056;-72
2023/05/02 05:02:29;;;;;;;9.95;7.05;;;;;;;9.10;100.00;98712.69;4182961;28;20048;-72
2023/05/02 05:04:29;;;;;;;6.80;6.00;;;;;;;9.08;100.00;98715.81;4182876;28;20047;-72
2023/05/02 05:06:30;;;;;;;14.93;6.13;;;;;;;9.07;100.00;98722.50;4182532;28;20033;-72
2023/05/02 05:08:31;;;;;;;7.70;6.25;;;;;;;9.04;100.00;98723.25;4129259;27;20043;-72
2023/05/02 05:10:32;;;;;;;7.97;6.38;;;;;;;9.05;100.00;98732.31;4182503;28;20103;-72
2023/05/02 05:12:32;;;;;;;7.90;7.10;;;;;;;9.02;100.00;98733.84;4186583;28;20052;-72
2023/05/02 05:14:33;;;;;;;7.47;5.88;;;;;;;8.97;100.00;98732.16;4185018;28;20049;-72
2023/05/02 05:16:33;;;;;;;7.25;5.93;;;;;;;8.99;100.00;98746.38;4177977;28;20380;-72
2023/05/02 05:18:39;;;;;;;12.77;7.03;;;;;;;8.94;100.00;98735.66;4182993;28;20029;-72
2023/05/02 05:20:39;;;;;;;9.00;6.82;;;;;;;9.01;100.00;98740.50;4182470;28;20045;-72
2023/05/02 05:22:40;;;;;;;8.27;6.75;;;;;;;9.03;100.00;98748.44;4179150;28;20040;-72
2023/05/02 05:24:40;;;;;;;8.75;6.70;;;;;;;9.01;100.00;98746.03;4185424;28;20033;-72
2023/05/02 05:26:41;;;;;;;6.60;5.90;;;;;;;9.02;100.00;98758.69;4184179;28;20393;-72
2023/05/02 05:28:42;;;;;;;8.10;6.55;;;;;;;9.04;100.00;98755.56;4183749;28;20039;-72
2023/05/02 05:30:43;;;;;;;9.32;6.45;;;;;;;9.01;100.00;98759.81;4180132;28;20076;-72
2023/05/02 05:32:43;;;;;;;7.03;6.32;;;;;;;9.00;100.00;98763.75;4186453;28;20041;-72
2023/05/02 05:34:44;;;;;;;10.80;7.05;;;;;;;9.05;100.00;98765.44;4182483;28;20432;-72
2023/05/02 05:36:44;;;;;;;9.52;6.40;;;;;;;9.03;100.00;98767.78;4184242;28;20068;-72
2023/05/02 05:38:45;;;;;;;15.23;9.13;;;;;;;9.05;100.00;98770.97;4183057;28;20098;-72
2023/05/02 05:40:48;;;;;;;16.02;9.73;;;;;;;9.01;100.00;98773.63;4179041;28;20114;-72
2023/05/02 05:42:48;;;;;;;10.50;7.07;;;;;;;9.00;100.00;98772.81;4177594;28;20046;-72
2023/05/02 05:44:50;;;;;;;6.97;5.95;;;;;;;9.03;100.00;98781.56;4182915;28;20405;-72
2023/05/02 05:46:50;;;;;;;8.38;5.97;;;;;;;9.05;100.00;98782.81;4183315;28;20029;-72
2023/05/02 05:48:50;;;;;;;9.43;6.35;;;;;;;9.05;100.00;98776.47;4179853;28;20047;-72
2023/05/02 05:50:51;;;;;;;9.48;6.57;;;;;;;9.04;100.00;98797.75;4182489;28;20036;-72
2023/05/02 05:52:51;;;;;;;7.63;6.32;;;;;;;9.02;100.00;98791.81;4183234;28;20102;-72
2023/05/02 05:54:58;;;;;;;7.63;6.07;;;;;;;9.06;100.00;98791.88;4185421;28;20119;-72
2023/05/02 05:56:58;;;;;;;7.00;6.30;;;;;;;9.06;100.00;98795.44;4178443;28;20388;-72
2023/05/02 05:58:59;;;;;;;8.63;6.40;;;;;;;9.03;100.00;98798.13;4180039;28;20033;-72
2023/05/02 06:00:59;;;;;;;8.13;5.93;;;;;;;9.04;100.00;98800.53;4184509;28;20072;-72
2023/05/02 06:02:59;;;;;;;9.00;6.13;;;;;;;9.08;100.00;98803.34;4183861;28;20033;-72
2023/05/02 06:05:00;;;;;;;10.38;6.18;;;;;;;9.07;100.00;98790.72;4179745;28;20039;-72
2023/05/02 06:07:00;;;;;;;6.90;6.20;;;;;;;9.08;100.00;98803.34;4182977;28;20478;-72
2023/05/02 06:09:01;;;;;;;8.32;6.30;;;;;;;9.10;100.00;98804.59;4184226;28;20097;-72
2023/05/02 06:11:01;;;;;;;8.10;6.35;;;;;;;9.10;100.00;98807.38;4180106;28;20040;-72
2023/05/02 06:13:02;;;;;;;7.93;6.72;;;;;;;9.13;100.00;98817.69;4179529;28;20037;-72
2023/05/02 06:15:02;;;;;;;9.10;6.07;;;;;;;9.19;100.00;98820.97;4184143;28;20431;-72
2023/05/02 06:17:02;;;;;;;9.48;6.82;;;;;;;9.19;100.00;98820.97;4180881;28;20049;-72
2023/05/02 06:19:03;;;;;;;8.65;6.32;;;;;;;9.22;100.00;98818.28;4182517;28;20075;-72
2023/05/02 06:21:04;;;;;;;7.00;6.07;;;;;;;9.28;100.00;98821.56;4183637;28;20201;-72
2023/05/02 06:23:05;;;;;;;9.40;6.22;;;;;;;9.28;100.00;98822.34;4179859;28;20052;-72
2023/05/02 06:25:06;;;;;;;10.07;6.95;;;;;;;9.36;100.00;98828.03;4179741;28;20411;-72
2023/05/02 06:27:06;;;;;;;10.02;6.70;;;;;;;9.40;100.00;98823.38;4183951;28;20024;-72
2023/05/02 06:29:06;;;;;;;7.80;6.25;;;;;;;9.45;100.00;98829.44;4184548;28;20105;-72
2023/05/02 06:31:07;;;;;;;8.88;6.65;;;;;;;9.46;100.00;98833.78;4181853;28;20044;-72
2023/05/02 06:33:07;;;;;;;8.63;6.80;;;;;;;9.52;100.00;98834.31;4177126;28;20044;-72
2023/05/02 06:35:08;;;;;;;9.02;7.35;;;;;;;9.62;100.00;98838.47;4181974;28;20078;-72
2023/05/02 06:37:08;;;;;;;8.45;7.50;;;;;;;9.66;100.00;98842.88;4177447;28;20557;-72
2023/05/02 06:39:08;;;;;;;8.48;6.88;;;;;;;9.69;100.00;98844.13;4184586;28;20349;-72
2023/05/02 06:41:13;;;;;;;9.93;6.78;;;;;;;9.78;100.00;98847.47;4181145;28;20055;-72
2023/05/02 06:43:14;;;;;;;9.77;7.05;;;;;;;9.79;100.00;98852.63;4180635;28;20044;-72
2023/05/02 06:45:15;;;;;;;8.18;6.75;;;;;;;9.81;100.00;98855.84;4182104;28;20084;-72
2023/05/02 06:47:15;;;;;;;8.68;6.70;;;;;;;9.77;100.00;98854.97;4188840;28;20076;-72
2023/05/02 06:49:15;;;;;;;10.13;7.15;;;;;;;9.83;100.00;98858.22;4182248;28;20401;-72
2023/05/02 06:51:18;;;;;;;7.97;6.60;;;;;;;9.86;100.00;98860.28;4185110;28;20465;-72
2023/05/02 06:53:18;;;;;;;8.98;6.82;;;;;;;9.96;100.00;98867.19;4181244;28;20045;-72
2023/05/02 06:55:18;;;;;;;8.27;6.78;;;;;;;10.00;100.00;98863.31;4181912;28;20045;-72
2023/05/02 06:57:19;;;;;;;9.63;7.57;;;;;;;9.97;100.00;98866.81;4183305;28;20444;-72
2023/05/02 06:59:19;;;;;;;8.55;7.13;;;;;;;9.96;100.00;98872.72;4182737;28;20411;-72
2023/05/02 07:01:19;;;;;;;9.23;6.68;;;;;;;10.01;100.00;98877.94;4178393;28;20241;-72
2023/05/02 07:03:20;;;;;;;10.88;7.75;;;;;;;10.00;100.00;98879.09;4182293;28;20157;-72
2023/05/02 07:05:20;;;;;;;10.60;8.02;;;;;;;10.03;100.00;98883.91;4182258;28;20468;-72
2023/05/02 07:07:21;;;;;;;9.68;7.50;;;;;;;10.06;100.00;98889.50;4180095;28;20110;-72
2023/05/02 07:09:21;;;;;;;10.18;7.80;;;;;;;10.08;100.00;98889.94;4181881;28;20418;-72
2023/05/02 07:11:23;;;;;;;9.15;7.25;;;;;;;10.17;100.00;98886.13;4180896;28;20311;-73
2023/05/02 07:13:23;;;;;;;10.52;8.13;;;;;;;10.21;100.00;98896.13;4182579;28;20057;-72
2023/05/02 07:15:23;;;;;;;11.38;8.68;;;;;;;10.16;100.00;98899.16;4182080;28;20052;-72
2023/05/02 07:17:24;;;;;;;10.73;8.05;;;;;;;10.18;100.00;98891.31;4181679;28;20044;-72
2023/05/02 07:19:24;;;;;;;9.63;8.15;;;;;;;10.25;100.00;98898.97;4181156;28;20128;-72
2023/05/02 07:21:25;;;;;;;10.05;7.85;;;;;;;10.29;100.00;98903.41;4182796;28;20113;-72
2023/05/02 07:23:26;;;;;;;10.77;7.43;;;;;;;10.31;100.00;98900.28;4183259;28;20507;-72
2023/05/02 07:25:26;;;;;;;10.25;8.38;;;;;;;10.30;100.00;98895.91;4182507;28;20301;-72
2023/05/02 07:27:27;;;;;;;10.65;8.18;;;;;;;10.36;100.00;98905.53;4182611;28;20049;-72
2023/05/02 07:29:27;;;;;;;11.13;8.70;;;;;;;10.44;100.00;98906.47;4181507;28;20048;-72
2023/05/02 07:31:28;;;;;;;10.57;8.05;;;;;;;10.39;100.00;98905.59;4152283;27;20057;-72
2023/05/02 07:33:28;;;;;;;14.20;8.95;;;;;;;10.46;100.00;98907.69;4181563;28;20114;-72
2023/05/02 07:35:28;;;;;;;12.80;8.60;;;;;;;10.52;100.00;98909.00;4185659;28;20539;-72
2023/05/02 07:37:34;;;;;;;12.68;9.13;;;;;;;10.56;100.00;98909.03;4188416;28;20044;-72
2023/05/02 07:39:34;;;;;;;12.80;9.20;;;;;;;10.49;100.00;98912.47;4181510;28;20037;-72
2023/05/02 07:41:34;;;;;;;12.23;10.02;;;;;;;10.59;100.00;98916.59;4185777;28;20102;-72
2023/05/02 07:43:35;;;;;;;12.38;8.70;;;;;;;10.60;100.00;98919.03;4186446;28;20033;-72
2023/05/02 07:45:35;;;;;;;12.38;9.07;;;;;;;10.66;100.00;98922.28;4180555;28;20056;-72
2023/05/02 07:47:36;;;;;;;15.68;9.32;;;;;;;10.63;100.00;98923.81;4184435;28;20056;-72
2023/05/02 07:49:36;;;;;;;13.43;9.55;;;;;;;10.65;100.00;98927.00;4184481;28;20072;-72
2023/05/02 07:51:38;;;;;;;12.68;9.60;;;;;;;10.73;100.00;98927.13;4185534;28;20082;-72
2023/05/02 07:53:39;;;;;;;13.48;9.73;;;;;;;10.78;100.00;98924.88;4186098;28;20180;-72
2023/05/02 07:55:39;;;;;;;13.48;9.90;;;;;;;10.80;100.00;98935.56;4184270;28;20419;-72
2023/05/02 07:57:39;;;;;;;15.23;10.43;;;;;;;10.79;100.00;98922.91;4184280;28;20468;-72
2023/05/02 07:59:40;;;;;;;12.98;9.75;;;;;;;10.83;100.00;98923.75;4184941;28;20041;-72
2023/05/02 08:01:40;;;;;;;11.93;9.63;;;;;;;10.87;100.00;98927.41;4183741;28;20041;-71
2023/05/02 08:03:41;;;;;;;13.73;10.15;;;;;;;10.90;100.00;98926.66;4185663;28;20037;-71
2023/05/02 08:05:41;;;;;;;14.50;10.60;;;;;;;10.89;100.00;98930.59;4188301;28;20464;-73
2023/05/02 08:07:41;;;;;;;15.75;10.90;;;;;;;10.92;100.00;98921.53;4182890;28;20463;-72
2023/05/02 08:09:42;;;;;;;11.98;10.30;;;;;;;11.03;100.00;98933.63;4185460;28;20049;-72
2023/05/02 08:11:42;;;;;;;14.88;9.57;;;;;;;11.10;100.00;98939.28;4184310;28;20041;-72
2023/05/02 08:13:42;;;;;;;15.90;10.45;;;;;;;11.14;100.00;98934.56;4185208;28;20076;-72
2023/05/02 08:15:43;;;;;;;14.60;10.60;;;;;;;11.18;100.00;98942.97;4178886;28;20044;-72
2023/05/02 08:17:43;;;;;;;13.23;10.00;;;;;;;11.23;100.00;98948.97;4182167;28;20025;-72
2023/05/02 08:19:43;;;;;;;13.18;10.50;;;;;;;11.26;100.00;98944.69;4185032;28;20072;-72
2023/05/02 08:21:44;;;;;;;14.10;11.20;;;;;;;11.31;100.00;98951.84;4184216;28;20045;-72
2023/05/02 08:23:45;;;;;;;15.13;11.43;;;;;;;11.31;100.00;98954.63;4184319;28;20084;-72
2023/05/02 08:25:45;;;;;;;15.68;11.52;;;;;;;11.37;100.00;98953.94;4182940;28;20048;-72
2023/05/02 08:27:45;;;;;;;18.58;11.38;;;;;;;11.39;100.00;98954.38;4181386;28;20036;-72
2023/05/02 08:29:46;;;;;;;16.58;12.10;;;;;;;11.46;100.00;98956.47;4183273;28;20106;-72
2023/05/02 08:31:46;;;;;;;17.85;12.55;;;;;;;11.41;100.00;98954.00;4182379;28;20045;-72
2023/05/02 08:33:47;;;;;;;16.85;11.98;;;;;;;11.43;100.00;98955.25;4189398;28;20048;-72
2023/05/02 08:35:47;;;;;;;16.38;12.60;;;;;;;11.40;100.00;98955.97;4183883;28;20469;-72
2023/05/02 08:37:47;;;;;;;19.02;13.30;;;;;;;11.45;100.00;98968.72;4184430;28;20044;-72
2023/05/02 08:39:48;;;;;;;19.23;13.45;;;;;;;11.45;100.00;98963.16;4183300;28;20037;-72
2023/05/02 08:41:48;;;;;;;19.98;14.13;;;;;;;11.53;100.00;98964.88;4181508;28;20033;-72
2023/05/02 08:43:49;;;;;;;21.98;15.77;;;;;;;11.52;100.00;98964.09;4184861;28;20484;-72
2023/05/02 08:45:53;;;;;;;20.33;13.50;;;;;;;11.55;100.00;98968.06;4179992;28;20053;-72
2023/05/02 08:47:55;;;;;;;18.90;12.60;;;;;;;11.52;100.00;98966.84;4180499;28;20546;-72
2023/05/02 08:49:56;;;;;;;19.95;13.93;;;;;;;11.54;100.00;98967.28;4185442;28;20055;-72
2023/05/02 08:51:58;;;;;;;17.95;13.00;;;;;;;11.58;100.00;98972.84;4180814;28;20052;-72
2023/05/02 08:54:02;;;;;;;20.38;13.85;;;;;;;11.56;100.00;98975.22;4181691;28;20423;-72
2023/05/02 08:56:02;;;;;;;25.08;16.23;;;;;;;11.63;100.00;98972.56;4186921;28;20072;-73
2023/05/02 08:58:03;;;;;;;16.45;12.82;;;;;;;11.61;100.00;98985.19;4179102;28;20033;-73
2023/05/02 09:00:04;;;;;;;20.15;13.48;;;;;;;11.61;100.00;98979.66;4183897;28;20108;-73
2023/05/02 09:02:35;;;;;;;18.95;13.07;;;;;;;11.66;100.00;98980.09;4185029;28;20482;-73
2023/05/02 09:04:40;;;;;;;18.10;12.48;;;;;;;11.73;100.00;98984.97;4182977;28;20455;-72
2023/05/02 09:06:41;;;;;;;30.42;17.98;;;;;;;11.86;100.00;98982.81;4184471;28;20032;-72
2023/05/02 09:08:43;;;;;;;18.70;13.52;;;;;;;11.95;100.00;98991.66;4181146;28;20052;-73
2023/05/02 09:10:44;;;;;;;16.33;12.10;;;;;;;12.08;100.00;98991.06;4182903;28;20503;-72
2023/05/02 09:12:45;;;;;;;16.05;11.52;;;;;;;12.32;100.00;98988.97;4182113;28;20432;-72
2023/05/02 09:14:45;;;;;;;20.83;12.43;;;;;;;12.61;100.00;98993.69;4181874;28;20049;-72
2023/05/02 09:16:46;;;;;;;15.85;11.10;;;;;;;12.78;100.00;98991.50;4188199;28;20135;-72
2023/05/02 09:18:49;;;;;;;16.13;11.52;;;;;;;12.77;100.00;98993.47;4182384;28;20174;-72
2023/05/02 09:20:49;;;;;;;;;;;;;;;12.89;100.00;98992.41;4186311;28;20044;-72
2023/05/02 09:22:51;;;;;;;17.92;11.65;;;;;;;13.01;100.00;98989.38;4182275;28;19917;-72
2023/05/02 09:24:56;;;;;;;15.15;11.50;;;;;;;13.10;100.00;98991.84;4183660;28;20425;-72
2023/05/02 09:27:04;;;;;;;15.07;11.20;;;;;;;13.16;100.00;98993.88;4183254;28;20040;-72
2023/05/02 09:29:04;;;;;;;14.02;10.50;;;;;;;13.21;100.00;98993.56;4181024;28;20045;-72
2023/05/02 09:31:09;;;;;;;14.88;10.50;;;;;;;13.32;100.00;98985.34;4183151;28;20037;-72